createdAt,value
2022-12-01T00:01:34.774Z,101189.91
2022-12-01T00:04:43.434Z,101202.19
2022-12-01T00:07:57.718Z,101194.56
2022-12-01T00:11:10.126Z,101196.81
2022-12-01T00:14:24.690Z,101193.41
2022-12-01T00:17:35.669Z,101197.22
2022-12-01T00:20:50.709Z,101201.84
2022-12-01T00:23:55.544Z,101203.19
2022-12-01T00:27:10.662Z,101203.19
2022-12-01T00:30:27.751Z,101198.09
2022-12-01T00:33:29.691Z,101208.88
2022-12-01T00:36:44.753Z,101211.53
2022-12-01T00:39:53.405Z,101209.06
2022-12-01T00:43:07.722Z,101206.59
2022-12-01T00:46:16.849Z,101211.09
2022-12-01T00:49:25.393Z,101209.38
2022-12-01T00:52:44.697Z,101211.16
2022-12-01T00:55:53.598Z,101213.94
2022-12-01T00:59:01.702Z,101219.56
2022-12-01T01:02:10.452Z,101211.97
2022-12-01T01:05:18.734Z,101216.66
2022-12-01T01:08:27.393Z,101214.09
2022-12-01T01:11:35.789Z,101216.41
2022-12-01T01:14:50.716Z,101208.81
2022-12-01T01:17:52.574Z,101211.16
2022-12-01T01:21:10.823Z,101204.97
2022-12-01T01:24:20.238Z,101206.09
2022-12-01T01:27:35.729Z,101207.28
2022-12-01T01:30:50.804Z,101205.63
2022-12-01T01:34:06.758Z,101208.94
2022-12-01T01:37:21.761Z,101202.06
2022-12-01T01:40:30.530Z,101197.59
2022-12-01T01:43:50.729Z,101209.59
2022-12-01T01:46:59.390Z,101207.44
2022-12-01T01:50:18.714Z,101209.72
2022-12-01T01:53:34.774Z,101214.03
2022-12-01T01:56:45.840Z,101206.69
2022-12-01T02:00:00.818Z,101205.84
2022-12-01T02:03:12.935Z,101206.22
2022-12-01T02:06:29.790Z,101203.66
2022-12-01T02:09:37.751Z,101196.94
2022-12-01T02:13:17.754Z,101202.53
2022-12-01T02:16:36.673Z,101193.03
2022-12-01T02:20:15.799Z,101195.22
2022-12-01T02:23:41.177Z,101197.47
2022-12-01T02:27:03.760Z,101197.66
2022-12-01T02:30:39.004Z,101202.81
2022-12-01T02:33:57.793Z,101205.09
2022-12-01T02:37:18.719Z,101199.66
2022-12-01T02:40:33.875Z,101203.22
2022-12-01T02:43:59.716Z,101202.31
2022-12-01T02:47:13.774Z,101198.91
2022-12-01T02:50:22.739Z,101198.81
2022-12-01T02:53:31.346Z,101185.31
2022-12-01T02:56:45.781Z,101184.38
2022-12-01T02:59:55.510Z,101188.63
2022-12-01T03:03:38.762Z,101189.69
2022-12-01T03:07:30.796Z,101185.13
2022-12-01T03:10:53.414Z,101186.19
2022-12-01T03:14:15.722Z,101195.78
2022-12-01T03:17:30.889Z,101199.41
2022-12-01T03:20:54.823Z,101187.31
2022-12-01T03:24:16.702Z,101191.59
2022-12-01T03:27:25.646Z,101190.06
2022-12-01T03:30:43.744Z,101186.06
2022-12-01T03:33:52.282Z,101188.63
2022-12-01T03:37:13.782Z,101185.87
2022-12-01T03:40:20.026Z,101176.06
2022-12-01T03:43:40.768Z,101172.37
2022-12-01T03:46:59.894Z,101170.47
2022-12-01T03:50:17.838Z,101172.97
2022-12-01T03:53:31.742Z,101179.59
2022-12-01T03:56:48.011Z,101171.44
2022-12-01T03:59:56.801Z,101166.09
2022-12-01T04:03:12.814Z,101170.56
2022-12-01T04:06:15.696Z,101175.81
2022-12-01T04:09:30.858Z,101168.87
2022-12-01T04:12:33.360Z,101175.44
2022-12-01T04:15:47.911Z,101163.06
2022-12-01T04:18:56.422Z,101176.59
2022-12-01T04:22:04.833Z,101166.50
2022-12-01T04:25:19.779Z,101160.50
2022-12-01T04:28:34.765Z,101155.28
2022-12-01T04:31:49.901Z,101161.56
2022-12-01T04:34:58.834Z,101162.72
2022-12-01T04:38:13.815Z,101170.31
2022-12-01T04:41:15.762Z,101169.37
2022-12-01T04:44:34.820Z,101180.75
2022-12-01T04:47:37.139Z,101178.19
2022-12-01T04:50:51.841Z,101199.41
2022-12-01T04:53:53.597Z,101192.72
2022-12-01T04:57:08.870Z,101199.75
2022-12-01T05:00:11.647Z,101199.84
2022-12-01T05:03:26.805Z,101193.97
2022-12-01T05:06:29.375Z,101192.28
2022-12-01T05:09:43.791Z,101189.78
2022-12-01T05:12:52.794Z,101190.47
2022-12-01T05:16:13.000Z,101195.94
2022-12-01T05:19:21.817Z,101188.06
2022-12-01T05:23:04.449Z,101189.13
2022-12-01T05:26:05.908Z,101192.72
2022-12-01T05:29:21.235Z,101196.34
2022-12-01T05:32:29.767Z,101193.69
2022-12-01T05:35:44.839Z,101194.25
2022-12-01T05:38:46.683Z,101190.94
2022-12-01T05:42:02.868Z,101190.28
2022-12-01T05:45:05.066Z,101193.78
2022-12-01T05:48:19.815Z,101197.66
2022-12-01T05:51:21.927Z,101189.13
2022-12-01T05:54:36.813Z,101195.00
2022-12-01T05:57:38.780Z,101195.19
2022-12-01T06:00:53.800Z,101198.88
2022-12-01T06:04:03.074Z,101195.44
2022-12-01T06:07:11.476Z,101202.97
2022-12-01T06:10:20.859Z,101210.16
2022-12-01T06:13:29.403Z,101202.28
2022-12-01T06:16:37.886Z,101207.69
2022-12-01T06:19:46.881Z,101211.19
2022-12-01T06:22:55.835Z,101215.56
2022-12-01T06:26:10.830Z,101219.47
2022-12-01T06:29:18.869Z,101210.78
2022-12-01T06:32:33.843Z,101215.66
2022-12-01T06:35:42.870Z,101212.81
2022-12-01T06:38:57.833Z,101217.59
2022-12-01T06:42:05.887Z,101211.72
2022-12-01T06:45:20.871Z,101210.47
2022-12-01T06:48:22.731Z,101205.53
2022-12-01T06:51:37.902Z,101213.41
2022-12-01T06:54:39.867Z,101212.00
2022-12-01T06:57:54.949Z,101208.78
2022-12-01T07:00:57.257Z,101209.84
2022-12-01T07:04:12.830Z,101215.06
2022-12-01T07:07:16.705Z,101214.78
2022-12-01T07:10:31.886Z,101210.69
2022-12-01T07:13:35.221Z,101215.72
2022-12-01T07:16:50.146Z,101216.69
2022-12-01T07:19:52.138Z,101210.41
2022-12-01T07:23:06.890Z,101207.19
2022-12-01T07:26:18.874Z,101208.41
2022-12-01T07:29:37.115Z,101201.72
2022-12-01T07:32:52.930Z,101211.00
2022-12-01T07:36:01.627Z,101211.16
2022-12-01T07:39:12.935Z,101216.16
2022-12-01T07:42:29.946Z,101215.06
2022-12-01T07:45:31.858Z,101218.09
2022-12-01T07:48:59.923Z,101205.97
2022-12-01T07:52:02.965Z,101205.25
2022-12-01T07:55:18.950Z,101210.03
2022-12-01T07:58:21.007Z,101211.38
2022-12-01T08:01:39.158Z,101215.44
2022-12-01T08:04:50.571Z,101216.31
2022-12-01T08:08:00.964Z,101216.13
2022-12-01T08:11:14.888Z,101218.47
2022-12-01T08:14:23.930Z,101219.72
2022-12-01T08:17:39.065Z,101225.38
2022-12-01T08:20:48.130Z,101221.78
2022-12-01T08:24:01.971Z,101215.69
2022-12-01T08:27:17.273Z,101214.81
2022-12-01T08:30:25.937Z,101210.94
2022-12-01T08:33:41.043Z,101213.91
2022-12-01T08:36:49.638Z,101215.88
2022-12-01T08:40:21.033Z,101222.94
2022-12-01T08:43:49.510Z,101231.75
2022-12-01T08:47:14.399Z,101230.50
2022-12-01T08:50:35.120Z,101228.88
2022-12-01T08:53:46.059Z,101220.81
2022-12-01T08:57:01.943Z,101220.31
2022-12-01T09:00:04.630Z,101223.41
2022-12-01T09:03:18.983Z,101217.06
2022-12-01T09:06:28.447Z,101210.75
2022-12-01T09:09:38.019Z,101218.84
2022-12-01T09:12:53.183Z,101214.75
2022-12-01T09:15:57.706Z,101220.41
2022-12-01T09:19:15.162Z,101219.97
2022-12-01T09:22:20.257Z,101225.06
2022-12-01T09:25:35.129Z,101209.44
2022-12-01T09:28:54.545Z,101211.41
2022-12-01T09:32:05.040Z,101207.13
2022-12-01T09:35:23.351Z,101203.72
2022-12-01T09:38:35.241Z,101199.94
2022-12-01T09:41:57.538Z,101197.16
2022-12-01T09:45:13.054Z,101193.94
2022-12-01T09:48:38.136Z,101204.34
2022-12-01T09:51:46.762Z,101204.00
2022-12-01T09:54:56.001Z,101202.31
2022-12-01T09:58:12.208Z,101199.03
2022-12-01T10:01:19.809Z,101194.50
2022-12-01T10:04:45.021Z,101184.25
2022-12-01T10:07:59.933Z,101185.59
2022-12-01T10:11:27.025Z,101185.94
2022-12-01T10:14:36.532Z,101183.25
2022-12-01T10:18:01.103Z,101178.00
2022-12-01T10:21:23.742Z,101175.50
2022-12-01T10:24:53.121Z,101175.75
2022-12-01T10:28:36.168Z,101178.41
2022-12-01T10:31:53.462Z,101166.97
2022-12-01T10:38:26.071Z,101152.97
2022-12-01T10:41:37.751Z,101162.31
2022-12-01T10:44:47.074Z,101162.44
2022-12-01T10:48:10.974Z,101157.78
2022-12-01T10:51:27.157Z,101153.91
2022-12-01T10:54:45.111Z,101151.06
2022-12-01T10:57:57.237Z,101148.19
2022-12-01T11:01:13.432Z,101145.16
2022-12-01T11:04:43.314Z,101152.72
2022-12-01T11:07:55.625Z,101141.87
2022-12-01T11:11:11.285Z,101149.53
2022-12-01T11:14:25.751Z,101136.34
2022-12-01T11:17:50.113Z,101128.69
2022-12-01T11:21:22.249Z,101107.50
2022-12-01T11:24:47.172Z,101131.13
2022-12-01T11:28:11.374Z,101122.25
2022-12-01T11:31:37.867Z,101115.22
2022-12-01T11:34:46.121Z,101120.97
2022-12-01T11:38:28.973Z,101113.19
2022-12-01T11:41:37.848Z,101112.38
2022-12-01T11:45:07.126Z,101105.44
2022-12-01T11:48:35.343Z,101122.44
2022-12-01T11:51:44.404Z,101115.56
2022-12-01T11:55:10.121Z,101109.09
2022-12-01T11:58:21.027Z,101112.50
2022-12-01T12:01:57.549Z,101109.41
2022-12-01T12:05:37.505Z,101101.31
2022-12-01T12:09:09.508Z,101107.13
2022-12-01T12:12:33.118Z,101104.81
2022-12-01T12:16:14.749Z,101107.41
2022-12-01T12:20:00.381Z,101119.62
2022-12-01T12:23:44.278Z,101098.63
2022-12-01T12:27:05.962Z,101101.06
2022-12-01T12:30:28.448Z,101086.41
2022-12-01T12:33:49.241Z,101087.19
2022-12-01T12:37:29.136Z,101084.59
2022-12-01T12:40:52.450Z,101087.38
2022-12-01T12:44:21.385Z,101104.91
2022-12-01T12:48:03.207Z,101094.59
2022-12-01T12:51:19.545Z,101098.28
2022-12-01T12:54:51.256Z,101084.34
2022-12-01T12:58:11.298Z,101095.00
2022-12-01T13:01:34.465Z,101093.53
2022-12-01T13:04:45.552Z,101089.03
2022-12-01T13:08:08.453Z,101090.97
2022-12-01T13:11:25.210Z,101081.47
2022-12-01T13:14:50.206Z,101075.50
2022-12-01T13:18:01.496Z,101076.66
2022-12-01T13:21:24.318Z,101078.56
2022-12-01T13:24:36.218Z,101081.63
2022-12-01T13:27:59.208Z,101087.91
2022-12-01T13:31:14.390Z,101089.69
2022-12-01T13:34:37.249Z,101095.13
2022-12-01T13:37:46.017Z,101087.38
2022-12-01T13:40:55.198Z,101089.88
2022-12-01T13:44:19.802Z,101092.69
2022-12-01T13:47:47.194Z,101086.69
2022-12-01T13:51:05.352Z,101089.62
2022-12-01T13:54:29.163Z,101087.44
2022-12-01T13:57:41.253Z,101090.38
2022-12-01T14:00:50.192Z,101081.56
2022-12-01T14:04:34.255Z,101087.34
2022-12-01T14:07:50.241Z,101091.59
2022-12-01T14:10:57.057Z,101091.09
2022-12-01T14:14:26.251Z,101078.66
2022-12-01T14:17:44.227Z,101083.06
2022-12-01T14:20:48.267Z,101080.50
2022-12-01T14:24:09.350Z,101079.53
2022-12-01T14:27:11.594Z,101081.47
2022-12-01T14:31:03.557Z,101081.84
2022-12-01T14:34:18.781Z,101081.25
2022-12-01T14:37:42.468Z,101073.09
2022-12-01T14:40:52.562Z,101088.06
2022-12-01T14:44:18.389Z,101085.72
2022-12-01T14:47:37.478Z,101070.75
2022-12-01T14:50:52.340Z,101075.16
2022-12-01T14:54:14.349Z,101079.66
2022-12-01T14:57:28.282Z,101086.84
2022-12-01T15:00:38.240Z,101084.63
2022-12-01T15:03:57.279Z,101084.53
2022-12-01T15:07:05.257Z,101084.63
2022-12-01T15:10:39.242Z,101096.44
2022-12-01T15:13:59.347Z,101094.63
2022-12-01T15:17:14.491Z,101090.75
2022-12-01T15:20:31.777Z,101091.84
2022-12-01T15:24:06.294Z,101087.09
2022-12-01T15:27:28.032Z,101079.28
2022-12-01T15:30:54.318Z,101087.69
2022-12-01T15:33:56.583Z,101087.69
2022-12-01T15:37:16.535Z,101092.81
2022-12-01T15:44:05.318Z,101086.84
2022-12-01T15:47:33.339Z,101086.72
2022-12-01T15:50:48.895Z,101089.59
2022-12-01T15:54:02.381Z,101090.56
2022-12-01T15:57:17.571Z,101080.25
2022-12-01T16:00:27.582Z,101082.66
2022-12-01T16:03:58.319Z,101097.41
2022-12-01T16:07:09.853Z,101088.16
2022-12-01T16:10:37.436Z,101094.00
2022-12-01T16:13:55.714Z,101094.16
2022-12-01T16:16:58.877Z,101090.38
2022-12-01T16:20:25.358Z,101093.41
2022-12-01T16:23:34.943Z,101098.72
2022-12-01T16:26:55.344Z,101094.47
2022-12-01T16:30:07.633Z,101091.91
2022-12-01T16:33:27.358Z,101097.34
2022-12-01T16:36:36.002Z,101099.19
2022-12-01T16:39:45.371Z,101088.59
2022-12-01T16:42:54.134Z,101071.53
2022-12-01T16:46:13.443Z,101097.28
2022-12-01T16:49:29.341Z,101097.03
2022-12-01T16:52:45.917Z,101098.41
2022-12-01T16:56:05.360Z,101094.63
2022-12-01T16:59:15.173Z,101087.69
2022-12-01T17:02:23.571Z,101093.03
2022-12-01T17:05:32.574Z,101095.72
2022-12-01T17:08:41.383Z,101104.47
2022-12-01T17:11:50.307Z,101102.31
2022-12-01T17:14:58.406Z,101109.59
2022-12-01T17:18:06.986Z,101102.91
2022-12-01T17:21:17.454Z,101097.03
2022-12-01T17:24:26.042Z,101096.19
2022-12-01T17:27:36.422Z,101100.31
2022-12-01T17:30:51.796Z,101109.09
2022-12-01T17:34:00.489Z,101100.69
2022-12-01T17:37:20.706Z,101112.25
2022-12-01T17:40:29.284Z,101107.75
2022-12-01T17:43:45.448Z,101107.97
2022-12-01T17:47:00.385Z,101113.06
2022-12-01T17:50:02.253Z,101118.44
2022-12-01T17:53:17.430Z,101114.78
2022-12-01T17:56:25.414Z,101112.00
2022-12-01T17:59:42.460Z,101117.97
2022-12-01T18:02:44.258Z,101114.03
2022-12-01T18:06:03.542Z,101118.75
2022-12-01T18:09:12.418Z,101121.06
2022-12-01T18:12:21.011Z,101118.41
2022-12-01T18:15:34.676Z,101116.25
2022-12-01T18:18:50.486Z,101121.53
2022-12-01T18:21:52.272Z,101117.75
2022-12-01T18:25:07.409Z,101118.63
2022-12-01T18:28:09.251Z,101115.69
2022-12-01T18:31:31.473Z,101114.59
2022-12-01T18:34:43.454Z,101120.19
2022-12-01T18:37:52.306Z,101119.22
2022-12-01T18:41:05.590Z,101119.09
2022-12-01T18:44:14.078Z,101126.22
2022-12-01T18:47:22.422Z,101124.00
2022-12-01T18:50:37.442Z,101134.09
2022-12-01T18:53:46.521Z,101120.59
2022-12-01T18:56:58.494Z,101127.25
2022-12-01T19:00:07.846Z,101128.22
2022-12-01T19:03:22.518Z,101128.87
2022-12-01T19:06:25.863Z,101125.78
2022-12-01T19:09:40.686Z,101126.19
2022-12-01T19:12:50.110Z,101125.50
2022-12-01T19:15:58.580Z,101128.75
2022-12-01T19:19:07.252Z,101127.94
2022-12-01T19:22:15.493Z,101126.00
2022-12-01T19:25:24.019Z,101132.31
2022-12-01T19:28:42.601Z,101131.94
2022-12-01T19:31:50.855Z,101132.06
2022-12-01T19:35:05.477Z,101138.09
2022-12-01T19:38:20.511Z,101134.59
2022-12-01T19:41:29.366Z,101132.63
2022-12-01T19:44:38.519Z,101131.69
2022-12-01T19:47:47.151Z,101129.63
2022-12-01T19:50:55.543Z,101133.72
2022-12-01T19:54:12.519Z,101136.16
2022-12-01T19:57:21.346Z,101138.97
2022-12-01T20:00:29.499Z,101132.47
2022-12-01T20:03:38.810Z,101142.44
2022-12-01T20:06:53.547Z,101137.41
2022-12-01T20:09:55.622Z,101141.25
2022-12-01T20:13:10.592Z,101132.06
2022-12-01T20:16:15.384Z,101143.72
2022-12-01T20:19:31.437Z,101145.41
2022-12-01T20:22:34.474Z,101150.59
2022-12-01T20:25:49.529Z,101139.59
2022-12-01T20:29:09.556Z,101144.72
2022-12-01T20:32:23.287Z,101136.94
2022-12-01T20:35:32.626Z,101147.06
2022-12-01T20:38:48.606Z,101150.00
2022-12-01T20:41:50.663Z,101143.25
2022-12-01T20:45:05.566Z,101147.97
2022-12-01T20:48:14.575Z,101161.50
2022-12-01T20:51:29.559Z,101159.88
2022-12-01T20:54:31.449Z,101152.50
2022-12-01T20:57:46.554Z,101165.56
2022-12-01T21:00:49.008Z,101162.13
2022-12-01T21:04:03.610Z,101171.66
2022-12-01T21:07:11.562Z,101169.28
2022-12-01T21:10:27.615Z,101172.41
2022-12-01T21:13:31.042Z,101173.78
2022-12-01T21:16:46.976Z,101176.00
2022-12-01T21:19:56.084Z,101173.97
2022-12-01T21:23:22.552Z,101180.06
2022-12-01T21:26:32.566Z,101184.75
2022-12-01T21:29:55.675Z,101181.88
2022-12-01T21:33:28.626Z,101181.88
2022-12-01T21:36:43.620Z,101190.81
2022-12-01T21:39:51.636Z,101183.56
2022-12-01T21:43:22.643Z,101192.34
2022-12-01T21:46:31.664Z,101184.97
2022-12-01T21:49:40.301Z,101187.19
2022-12-01T21:52:50.662Z,101178.66
2022-12-01T21:55:59.218Z,101188.25
2022-12-01T21:59:22.664Z,101186.78
2022-12-01T22:02:55.681Z,101194.34
2022-12-01T22:06:30.108Z,101190.31
2022-12-01T22:09:42.613Z,101186.16
2022-12-01T22:12:51.323Z,101191.03
2022-12-01T22:16:00.690Z,101189.44
2022-12-01T22:19:36.886Z,101191.25
2022-12-01T22:22:46.600Z,101183.88
2022-12-01T22:25:55.217Z,101191.84
2022-12-01T22:29:05.622Z,101186.66
2022-12-01T22:32:55.650Z,101180.94
2022-12-01T22:36:24.978Z,101176.56
2022-12-01T22:39:37.744Z,101175.59
2022-12-01T22:42:46.230Z,101168.63
2022-12-01T22:46:14.700Z,101172.37
2022-12-01T22:49:29.692Z,101173.97
2022-12-01T22:52:31.779Z,101170.56
2022-12-01T22:55:46.688Z,101171.63
2022-12-01T22:58:54.645Z,101178.66
2022-12-01T23:02:20.965Z,101168.97
2022-12-01T23:05:33.654Z,101168.63
2022-12-01T23:08:42.372Z,101168.72
2022-12-01T23:11:55.674Z,101170.94
2022-12-01T23:15:41.752Z,101173.28
2022-12-01T23:18:49.673Z,101173.50
2022-12-01T23:21:58.217Z,101173.03
2022-12-01T23:25:08.706Z,101171.00
2022-12-01T23:28:31.653Z,101170.88
2022-12-01T23:31:47.804Z,101170.13
2022-12-01T23:35:02.868Z,101168.75
2022-12-01T23:38:05.554Z,101178.81
2022-12-01T23:41:27.677Z,101172.06
2022-12-01T23:44:39.378Z,101177.22
2022-12-01T23:47:54.710Z,101180.28
2022-12-01T23:50:56.563Z,101175.34
2022-12-01T23:54:26.802Z,101177.94
2022-12-01T23:57:36.903Z,101179.72
